Time;durP1;ratioP1;P1;durP2;ratioP2;P2;SDS_P1;SDS_P2;PMS_P1;PMS_P2;Temp;Humidity;BMP_temperature;BMP_pressure;BME280_temperature;BME280_humidity;BME280_pressure;Samples;Min_cycle;Max_cycle;Signal;HPM_P1;HPM_P2
2023/06/19 00:02:25;;;;;;;;;14.00;14.00;;;;;19.33;67.02;98680.84;6077760;28;96542;-59
2023/06/19 00:05:28;;;;;;;;;14.00;12.00;;;;;19.29;67.11;98694.28;6024177;28;98785;-60
2023/06/19 00:08:33;;;;;;;;;17.50;16.50;;;;;19.27;67.28;98692.91;6032517;28;96679;-59
2023/06/19 00:11:36;;;;;;;;;16.60;15.00;;;;;19.27;67.03;98684.72;6050971;28;96902;-59
2023/06/19 00:14:40;;;;;;;;;12.33;12.33;;;;;19.26;67.33;98697.56;6068329;28;97705;-59
2023/06/19 00:17:43;;;;;;;;;14.50;14.00;;;;;19.24;67.58;98702.50;6063766;28;98372;-60
2023/06/19 00:20:46;;;;;;;;;12.00;11.00;;;;;19.24;67.78;98693.47;6035641;28;98627;-59
2023/06/19 00:23:51;;;;;;;;;15.75;14.75;;;;;19.25;67.56;98686.94;6066393;28;96848;-59
2023/06/19 00:26:55;;;;;;;;;13.00;13.00;;;;;19.24;67.46;98688.03;6033045;28;96819;-60
2023/06/19 00:30:01;;;;;;;;;15.00;15.00;;;;;19.13;67.27;98670.84;6050157;28;96551;-59
2023/06/19 00:33:08;;;;;;;;;14.50;13.50;;;;;19.15;67.34;98674.13;6050145;28;96656;-59
2023/06/19 00:36:12;;;;;;;;;15.00;15.00;;;;;19.23;67.56;98686.38;6050515;28;96335;-59
2023/06/19 00:39:17;;;;;;;;;15.60;15.40;;;;;19.18;68.22;98678.22;6049582;28;96429;-61
2023/06/19 00:42:20;;;;;;;;;14.80;14.00;;;;;19.12;68.19;98691.09;6067152;28;96269;-59
2023/06/19 00:45:25;;;;;;;;;13.20;12.20;;;;;19.12;68.21;98684.78;6067255;28;97301;-59
2023/06/19 00:48:30;;;;;;;;;15.40;14.40;;;;;19.08;68.10;98689.19;6067364;28;96614;-59
2023/06/19 00:51:34;;;;;;;;;16.00;15.00;;;;;19.07;68.26;98682.91;6067809;28;96377;-59
2023/06/19 00:54:39;;;;;;;;;12.80;12.20;;;;;19.06;68.19;98680.47;6049650;28;98337;-59
2023/06/19 00:57:43;;;;;;;;;14.00;14.00;;;;;19.06;68.03;98680.47;6050227;28;96329;-60
2023/06/19 01:00:46;;;;;;;;;13.20;13.20;;;;;19.07;68.36;98682.91;6066776;28;96890;-60
2023/06/19 01:04:10;;;;;;;;;14.00;13.00;;;;;19.04;68.16;98689.78;6049511;28;96452;-60
2023/06/19 01:07:17;;;;;;;;;16.00;13.00;;;;;19.02;68.36;98681.03;6050521;28;97265;-59
2023/06/19 01:10:27;;;;;;;;;15.00;14.00;;;;;18.95;68.87;98683.25;6049909;28;98367;-59
2023/06/19 01:13:38;;;;;;;;;15.67;15.00;;;;;18.91;68.77;98676.69;6066788;28;96514;-59
2023/06/19 01:16:42;;;;;;;;;15.80;15.00;;;;;18.87;68.87;98680.28;6067625;28;96495;-59
2023/06/19 01:19:46;;;;;;;;;14.60;13.60;;;;;18.82;68.82;98674.84;6064506;28;96726;-59
2023/06/19 01:22:51;;;;;;;;;16.80;15.80;;;;;18.75;69.31;98680.63;6057655;28;96626;-60
2023/06/19 01:25:54;;;;;;;;;14.00;13.60;;;;;18.69;69.15;98680.91;6065965;28;98858;-62
2023/06/19 01:28:58;;;;;;;;;14.00;12.40;;;;;18.65;69.12;98679.84;6072099;28;96336;-59
2023/06/19 01:32:07;;;;;;;;;14.75;14.50;;;;;18.59;69.77;98689.97;6055701;28;96758;-59
2023/06/19 01:35:12;;;;;;;;;14.50;13.50;;;;;18.55;69.72;98686.97;6048561;28;96837;-59
2023/06/19 01:38:18;;;;;;;;;18.00;17.00;;;;;18.54;70.06;98690.78;6066338;28;97775;-61
2023/06/19 01:41:24;;;;;;;;;14.00;14.00;;;;;18.52;70.32;98692.16;6067121;28;96410;-59
2023/06/19 01:44:27;;;;;;;;;13.40;13.00;;;;;18.53;70.79;98694.63;6049866;28;99009;-59
2023/06/19 01:47:30;;;;;;;;;15.00;14.00;;;;;18.54;70.33;98698.16;6091450;28;96292;-59
2023/06/19 01:50:34;;;;;;;;;11.40;9.80;;;;;18.55;71.07;98700.63;6053331;28;97389;-60
2023/06/19 01:53:38;;;;;;;;;13.00;12.00;;;;;18.57;70.01;98701.16;6065267;28;96395;-59
2023/06/19 01:56:42;;;;;;;;;16.00;12.00;;;;;18.56;70.56;98696.00;6048207;28;97838;-59
2023/06/19 01:59:46;;;;;;;;;16.00;16.00;;;;;18.57;70.59;98700.31;6048994;28;96856;-59
2023/06/19 02:02:49;;;;;;;;;16.60;15.00;;;;;18.57;70.37;98692.13;6024263;28;97299;-59
2023/06/19 02:05:53;;;;;;;;;15.25;14.25;;;;;18.58;70.15;98696.50;6063041;28;96645;-59
2023/06/19 02:08:58;;;;;;;;;11.00;10.40;;;;;18.57;70.39;98703.06;6049562;28;96384;-59
2023/06/19 02:12:01;;;;;;;;;16.00;13.00;;;;;18.50;70.34;98697.88;6049929;28;96719;-60
2023/06/19 02:15:05;;;;;;;;;14.40;13.00;;;;;18.47;70.00;98703.09;6048870;28;96691;-59
2023/06/19 02:18:09;;;;;;;;;16.50;15.50;;;;;18.43;71.43;98700.06;6049358;28;96541;-60
2023/06/19 02:21:13;;;;;;;;;13.00;12.00;;;;;18.46;71.94;98699.53;6042984;28;98911;-59
2023/06/19 02:24:18;;;;;;;;;14.20;12.20;;;;;18.51;71.51;98709.63;6047635;28;96419;-59
2023/06/19 02:27:21;;;;;;;;;15.60;15.00;;;;;18.52;71.50;98703.06;6034154;28;96332;-59
2023/06/19 02:30:24;;;;;;;;;13.40;12.60;;;;;18.52;71.57;98697.63;6064966;28;98162;-59
2023/06/19 02:33:28;;;;;;;;;12.00;10.00;;;;;18.51;71.55;98693.25;6065805;28;96754;-59
2023/06/19 02:36:32;;;;;;;;;17.00;14.60;;;;;18.52;71.10;98703.06;6064621;28;96847;-59
2023/06/19 02:39:38;;;;;;;;;12.40;11.00;;;;;18.48;71.22;98700.06;6039135;28;96678;-59
2023/06/19 02:42:43;;;;;;;;;10.00;10.00;;;;;18.45;71.20;98700.63;6058581;28;97139;-59
2023/06/19 02:45:46;;;;;;;;;14.00;11.60;;;;;18.39;71.47;98704.44;6062964;28;97593;-59
2023/06/19 02:48:49;;;;;;;;;13.00;13.00;;;;;18.37;72.29;98701.19;6048581;28;96353;-59
2023/06/19 02:51:53;;;;;;;;;12.80;11.80;;;;;18.41;72.74;98706.91;6055633;28;97250;-59
2023/06/19 02:54:58;;;;;;;;;15.40;13.00;;;;;18.40;73.73;98710.72;6051666;28;96965;-60
2023/06/19 02:58:03;;;;;;;;;15.40;15.00;;;;;18.45;74.07;98708.81;6051280;28;96694;-62
2023/06/19 03:01:08;;;;;;;;;14.00;12.50;;;;;18.49;73.52;98709.06;6065363;28;96689;-59
2023/06/19 03:04:12;;;;;;;;;14.20;13.60;;;;;18.50;72.92;98706.06;6066170;28;96334;-59
2023/06/19 03:07:17;;;;;;;;;12.00;11.50;;;;;18.52;72.77;98703.88;6052030;28;96906;-59
2023/06/19 03:10:21;;;;;;;;;14.60;14.00;;;;;18.58;72.56;98704.69;6053082;28;96366;-59
2023/06/19 03:13:25;;;;;;;;;11.00;9.00;;;;;18.58;72.58;98705.53;6035321;28;96954;-59
2023/06/19 03:16:29;;;;;;;;;11.20;11.20;;;;;18.62;73.15;98708.50;6051503;28;97120;-59
2023/06/19 03:19:32;;;;;;;;;15.00;14.00;;;;;18.58;73.13;98707.44;6049673;28;96323;-60
2023/06/19 03:22:36;;;;;;;;;16.25;15.00;;;;;18.59;72.87;98707.16;6047238;28;97052;-60
2023/06/19 03:25:42;;;;;;;;;13.50;13.00;;;;;18.62;73.14;98713.19;6048187;28;96471;-60
2023/06/19 03:28:47;;;;;;;;;13.40;11.60;;;;;18.74;72.93;98716.41;6032470;28;98516;-59
2023/06/19 03:31:51;;;;;;;;;11.75;11.75;;;;;18.84;73.19;98716.34;6061903;28;97866;-60
2023/06/19 03:34:56;;;;;;;;;12.00;11.60;;;;;18.94;73.03;98719.88;6049923;28;96544;-60
2023/06/19 03:38:00;;;;;;;;;15.00;14.00;;;;;19.06;72.75;98724.19;6050694;28;96951;-59
2023/06/19 03:41:05;;;;;;;;;16.25;15.75;;;;;19.17;71.74;98729.31;6068586;28;96241;-59
2023/06/19 03:44:08;;;;;;;;;15.00;14.25;;;;;19.26;71.47;98726.78;6049496;28;96755;-60
2023/06/19 03:47:11;;;;;;;;;14.25;14.00;;;;;19.28;71.93;98717.22;6032035;28;96888;-60
2023/06/19 03:50:15;;;;;;;;;15.00;15.00;;;;;19.46;71.36;98729.44;6049079;28;96543;-59
2023/06/19 03:53:33;;;;;;;;;16.60;16.40;;;;;19.48;71.17;98735.47;6064923;28;96973;-59
2023/06/19 03:56:39;;;;;;;;;14.50;14.00;;;;;19.49;69.65;98730.81;6047887;28;96477;-60
2023/06/19 03:59:42;;;;;;;;;17.00;15.40;;;;;19.51;69.19;98734.06;6049525;28;96459;-59
2023/06/19 04:02:47;;;;;;;;;16.00;14.00;;;;;19.55;68.89;98716.00;6065270;28;96552;-61
2023/06/19 04:05:51;;;;;;;;;16.00;15.00;;;;;19.65;68.41;98716.72;6059975;28;96564;-59
2023/06/19 04:08:54;;;;;;;;;13.20;12.80;;;;;19.73;68.40;98721.63;6053865;28;97523;-59
2023/06/19 04:12:00;;;;;;;;;15.25;14.25;;;;;19.83;67.96;98723.47;6036562;28;96308;-59
2023/06/19 04:15:03;;;;;;;;;17.60;15.60;;;;;20.01;67.77;98720.00;6026915;28;97156;-59
2023/06/19 04:18:08;;;;;;;;;15.20;14.20;;;;;20.19;67.20;98719.28;6063623;28;98785;-60
2023/06/19 04:21:13;;;;;;;;;14.00;12.40;;;;;20.39;66.71;98725.69;6047509;28;96784;-58
2023/06/19 04:24:16;;;;;;;;;15.75;14.75;;;;;20.61;66.81;98726.03;6060739;28;96744;-59
2023/06/19 04:27:21;;;;;;;;;12.00;10.20;;;;;20.84;65.11;98727.13;6056471;28;96986;-59
2023/06/19 04:30:24;;;;;;;;;14.00;13.60;;;;;21.00;63.76;98734.88;6049062;28;96530;-59
2023/06/19 04:33:29;;;;;;;;;13.20;13.00;;;;;21.20;63.67;98733.03;6062727;28;97704;-59
2023/06/19 04:36:32;;;;;;;;;14.00;12.00;;;;;21.42;63.21;98738.72;6059178;28;96430;-59
2023/06/19 04:39:36;;;;;;;;;11.80;11.00;;;;;21.62;61.40;98735.69;6045725;28;96607;-59
2023/06/19 04:42:40;;;;;;;;;14.20;13.00;;;;;21.75;60.48;98750.59;6055541;28;96593;-59
2023/06/19 04:45:44;;;;;;;;;13.00;12.75;;;;;21.87;59.15;98743.53;6035093;28;96819;-59
2023/06/19 04:48:50;;;;;;;;;14.00;13.00;;;;;22.02;59.02;98751.56;6055890;28;96531;-58
2023/06/19 04:51:54;;;;;;;;;13.00;12.00;;;;;22.16;59.11;98746.13;6072941;28;98228;-59
2023/06/19 04:54:58;;;;;;;;;12.40;11.40;;;;;22.39;59.51;98747.91;6033887;28;97102;-59
2023/06/19 04:58:02;;;;;;;;;11.00;10.00;;;;;22.52;58.31;98734.50;6065071;28;97099;-58
2023/06/19 05:01:06;;;;;;;;;12.00;11.75;;;;;22.77;58.19;98754.09;6041911;28;96773;-58
2023/06/19 05:04:11;;;;;;;;;13.80;11.00;;;;;22.91;56.95;98756.84;6056230;28;96921;-60
2023/06/19 05:07:15;;;;;;;;;10.00;10.00;;;;;22.97;57.26;98739.13;6063957;28;96344;-59
2023/06/19 05:10:19;;;;;;;;;12.00;10.60;;;;;23.23;55.20;98759.47;6029837;28;97120;-59
2023/06/19 05:13:24;;;;;;;;;11.00;10.20;;;;;23.24;54.13;98750.13;6066837;28;96249;-59
2023/06/19 05:16:28;;;;;;;;;10.80;9.80;;;;;23.42;54.19;98753.84;6061936;28;97646;-59
2023/06/19 05:19:32;;;;;;;;;13.00;12.00;;;;;23.46;53.61;98749.38;6055124;28;97432;-60
2023/06/19 05:22:37;;;;;;;;;12.75;11.75;;;;;23.52;53.04;98747.31;6052302;28;96211;-60
2023/06/19 05:25:40;;;;;;;;;11.00;11.00;;;;;23.53;52.94;98737.97;6027953;28;99606;-59
2023/06/19 05:28:45;;;;;;;;;12.00;10.00;;;;;23.67;52.03;98749.75;6073373;28;98413;-59
2023/06/19 05:31:49;;;;;;;;;12.20;11.60;;;;;23.80;52.90;98762.63;6064774;28;96200;-59
2023/06/19 05:34:53;;;;;;;;;15.00;13.00;;;;;23.93;52.24;98764.53;6049569;28;98132;-61
2023/06/19 05:37:56;;;;;;;;;14.00;14.00;;;;;24.03;52.08;98756.03;6067601;28;96305;-60
2023/06/19 05:41:00;;;;;;;;;11.00;11.00;;;;;24.07;51.94;98765.28;6050048;28;96313;-59
2023/06/19 05:44:05;;;;;;;;;11.00;10.75;;;;;24.25;52.09;98776.44;6071667;28;96277;-60
2023/06/19 05:47:08;;;;;;;;;12.40;12.00;;;;;24.39;51.15;98769.75;6081331;28;97640;-59
2023/06/19 05:50:12;;;;;;;;;11.00;10.80;;;;;24.42;50.20;98768.31;6066850;28;96291;-59
2023/06/19 05:53:15;;;;;;;;;13.00;13.00;;;;;24.44;50.05;98769.63;6051048;28;97269;-59
2023/06/19 05:56:19;;;;;;;;;10.60;10.60;;;;;24.61;48.84;98779.94;6050479;28;97220;-59
2023/06/19 05:59:24;;;;;;;;;12.80;11.00;;;;;24.74;49.21;98780.97;6068244;28;96353;-60
2023/06/19 06:02:28;;;;;;;;;13.60;12.40;;;;;24.89;49.54;98775.88;6065880;28;96691;-59
2023/06/19 06:05:32;;;;;;;;;13.00;12.00;;;;;24.94;48.89;98761.94;6065948;28;96568;-60
2023/06/19 06:08:35;;;;;;;;;11.00;10.60;;;;;25.15;48.52;98775.97;6050289;28;96717;-59
2023/06/19 06:11:39;;;;;;;;;11.80;10.40;;;;;25.23;47.95;98774.38;6049908;28;99265;-59
2023/06/19 06:14:43;;;;;;;;;11.20;10.20;;;;;25.32;48.26;98773.25;6067161;28;97846;-59
2023/06/19 06:17:47;;;;;;;;;13.00;13.00;;;;;25.52;48.96;98768.25;6072798;28;96677;-59
2023/06/19 06:20:51;;;;;;;;;14.00;12.00;;;;;25.63;48.25;98756.63;6066690;28;96340;-60
2023/06/19 06:23:54;;;;;;;;;12.00;12.00;;;;;25.88;47.34;98766.06;6049089;28;98409;-59
2023/06/19 06:26:59;;;;;;;;;13.20;11.80;;;;;25.87;46.12;98772.72;6065874;28;96766;-59
2023/06/19 06:30:04;;;;;;;;;11.40;11.00;;;;;26.03;45.35;98773.88;6066966;28;96945;-60
2023/06/19 06:33:07;;;;;;;;;11.50;10.50;;;;;26.10;45.03;98776.94;6050578;28;96567;-59
2023/06/19 06:36:11;;;;;;;;;12.00;10.00;;;;;26.16;43.92;98775.63;6048856;28;99160;-59
2023/06/19 06:39:28;;;;;;;;;11.00;10.00;;;;;26.23;44.13;98775.19;6067910;28;96407;-59
2023/06/19 06:42:31;;;;;;;;;10.50;9.50;;;;;26.38;43.82;98784.91;6067493;28;96510;-59
2023/06/19 06:45:37;;;;;;;;;10.00;10.00;;;;;26.51;43.25;98783.91;6034395;28;99342;-59
2023/06/19 06:48:41;;;;;;;;;9.00;8.00;;;;;26.58;43.37;98782.28;6066019;28;96486;-60
2023/06/19 06:51:44;;;;;;;;;10.00;9.40;;;;;26.73;42.62;98787.25;6065529;28;96852;-59
2023/06/19 06:54:47;;;;;;;;;10.25;9.25;;;;;26.76;40.67;98793.28;6064440;28;96287;-60
2023/06/19 06:57:51;;;;;;;;;8.00;7.50;;;;;26.98;42.09;98793.06;6063670;28;96965;-60
2023/06/19 07:00:56;;;;;;;;;10.75;9.75;;;;;27.03;41.07;98798.41;6047721;28;96280;-60
2023/06/19 07:03:59;;;;;;;;;11.00;10.00;;;;;27.09;41.74;98797.09;6052939;28;97023;-61
2023/06/19 07:07:05;;;;;;;;;10.00;9.00;;;;;27.22;40.21;98795.25;6066258;28;96562;-59
2023/06/19 07:10:09;;;;;;;;;10.60;10.00;;;;;27.44;42.32;98794.94;6050462;28;97548;-59
2023/06/19 07:13:13;;;;;;;;;12.40;12.00;;;;;27.50;40.84;98794.47;6049448;28;97103;-59
2023/06/19 07:16:17;;;;;;;;;12.00;11.00;;;;;27.63;40.34;98791.78;6049884;28;96651;-60
2023/06/19 07:19:21;;;;;;;;;11.00;10.80;;;;;27.67;40.02;98781.63;6066860;28;96385;-59
2023/06/19 07:22:24;;;;;;;;;9.00;8.00;;;;;27.68;38.89;98784.06;6065051;28;96165;-59
2023/06/19 07:25:28;;;;;;;;;13.40;12.00;;;;;27.92;39.16;98791.72;6065092;28;96262;-60
2023/06/19 07:28:31;;;;;;;;;11.00;11.00;;;;;28.15;40.26;98793.00;6048179;28;97258;-60
2023/06/19 07:31:36;;;;;;;;;10.40;10.00;;;;;28.43;38.97;98791.31;6048104;28;98714;-60
2023/06/19 07:34:39;;;;;;;;;9.00;9.00;;;;;28.57;39.08;98791.00;6064718;28;97277;-61
2023/06/19 07:37:42;;;;;;;;;8.00;8.00;;;;;28.70;38.92;98797.38;6050835;28;98492;-59
2023/06/19 07:40:46;;;;;;;;;9.50;8.00;;;;;29.00;38.63;98798.84;6070755;28;96284;-59
2023/06/19 07:43:49;;;;;;;;;11.00;10.00;;;;;29.16;37.28;98807.31;6070828;28;96936;-59
2023/06/19 07:46:54;;;;;;;;;10.00;9.40;;;;;29.26;37.06;98804.09;6053311;28;96292;-59
2023/06/19 07:49:57;;;;;;;;;11.00;11.00;;;;;29.32;36.52;98794.41;6070866;28;96924;-59
2023/06/19 07:53:01;;;;;;;;;13.00;11.00;;;;;29.41;35.92;98808.16;6070101;28;96445;-60
2023/06/19 07:56:04;;;;;;;;;10.00;9.67;;;;;29.58;36.52;98803.16;6070085;28;96634;-60
2023/06/19 07:59:08;;;;;;;;;10.40;9.00;;;;;29.78;36.11;98806.97;6053518;28;97693;-59
2023/06/19 08:02:12;;;;;;;;;8.20;7.20;;;;;30.07;36.28;98803.91;6070453;28;96646;-60
2023/06/19 08:05:16;;;;;;;;;9.40;8.20;;;;;30.41;35.65;98798.91;6053478;28;96380;-60
2023/06/19 08:08:20;;;;;;;;;11.00;10.40;;;;;30.69;35.04;98796.16;6070030;28;96476;-60
2023/06/19 08:11:23;;;;;;;;;9.00;8.60;;;;;30.91;34.23;98810.25;6052114;28;96697;-60
2023/06/19 08:14:26;;;;;;;;;10.00;9.00;;;;;31.03;33.15;98805.81;6064106;28;96474;-60
2023/06/19 08:17:31;;;;;;;;;8.00;8.00;;;;;31.07;33.26;98799.16;6070008;28;96425;-59
2023/06/19 08:20:35;;;;;;;;;10.00;9.00;;;;;31.09;33.53;98798.78;6052583;28;98221;-60
2023/06/19 08:23:39;;;;;;;;;10.80;9.80;;;;;31.38;33.57;98803.88;6069391;28;96333;-60
2023/06/19 08:26:42;;;;;;;;;10.40;10.00;;;;;31.42;32.11;98798.44;6053223;28;96355;-60
2023/06/19 08:29:45;;;;;;;;;11.00;10.40;;;;;31.61;33.15;98804.91;6036668;28;96680;-59
2023/06/19 08:32:50;;;;;;;;;11.00;9.67;;;;;31.86;31.30;98804.66;6051988;28;97068;-60
2023/06/19 08:35:54;;;;;;;;;11.00;10.60;;;;;32.15;31.94;98801.34;6052366;28;96710;-60
2023/06/19 08:38:57;;;;;;;;;9.00;9.00;;;;;32.41;31.19;98795.88;6052657;28;96347;-60
2023/06/19 08:42:00;;;;;;;;;7.00;7.00;;;;;32.58;29.86;98791.84;6070412;28;96644;-60
2023/06/19 08:45:04;;;;;;;;;8.75;8.75;;;;;32.60;29.81;98800.63;6052223;28;97068;-60
2023/06/19 08:48:15;;;;;;;;;10.00;10.00;;;;;32.74;29.11;98798.16;6035868;28;96787;-60
2023/06/19 08:51:19;;;;;;;;;9.40;9.00;;;;;32.79;28.89;98797.06;6070005;28;96477;-60
2023/06/19 08:54:22;;;;;;;;;8.00;7.50;;;;;32.90;28.97;98795.22;6069132;28;97540;-60
2023/06/19 08:57:35;;;;;;;;;9.25;8.50;;;;;32.95;28.57;98803.31;6052906;28;96392;-60
2023/06/19 09:00:38;;;;;;;;;9.40;8.00;;;;;32.85;28.28;98793.56;6068573;28;96297;-60
2023/06/19 09:03:44;;;;;;;;;9.00;8.00;;;;;32.63;29.17;98803.53;6051800;28;96316;-60
2023/06/19 09:06:49;;;;;;;;;10.00;9.75;;;;;32.72;29.79;98791.31;6068952;28;96307;-60
2023/06/19 09:09:53;;;;;;;;;10.80;10.00;;;;;32.63;29.60;98784.00;6069025;28;96320;-61
2023/06/19 09:12:58;;;;;;;;;8.60;8.60;;;;;32.53;29.87;98775.38;6036391;28;98772;-60
2023/06/19 09:16:04;;;;;;;;;9.50;7.75;;;;;32.85;29.58;98781.59;6067865;28;96933;-60
2023/06/19 09:19:10;;;;;;;;;11.33;11.00;;;;;33.28;29.26;98772.78;6052135;28;96605;-60
2023/06/19 09:22:13;;;;;;;;;10.00;10.00;;;;;33.57;27.94;98764.84;6048615;28;100013;-61
2023/06/19 09:25:18;;;;;;;;;10.00;9.40;;;;;33.92;27.08;98782.94;6066488;28;96458;-60
2023/06/19 09:28:22;;;;;;;;;8.00;7.40;;;;;34.06;26.16;98787.13;6045476;28;99494;-61
2023/06/19 09:31:33;;;;;;;;;10.80;10.80;;;;;33.99;25.87;98779.44;6048997;28;96720;-60
2023/06/19 09:34:38;;;;;;;;;10.60;10.60;;;;;33.85;26.25;98780.06;6063974;28;97043;-60
2023/06/19 09:37:42;;;;;;;;;10.40;9.80;;;;;34.07;25.95;98778.34;6068252;28;96320;-60
2023/06/19 09:40:48;;;;;;;;;8.00;8.00;;;;;33.70;26.16;98769.84;6050880;28;96661;-60
2023/06/19 09:43:57;;;;;;;;;8.40;8.00;;;;;33.56;26.02;98785.59;6051539;28;96712;-59
2023/06/19 09:47:03;;;;;;;;;9.00;8.00;;;;;33.38;26.24;98769.34;6068485;28;96521;-60
2023/06/19 09:50:09;;;;;;;;;8.00;8.00;;;;;33.35;26.70;98770.09;6050894;28;96295;-60
2023/06/19 09:53:13;;;;;;;;;9.00;8.00;;;;;33.46;28.08;98773.06;6051027;28;96328;-59
2023/06/19 09:56:21;;;;;;;;;10.00;9.40;;;;;33.69;28.01;98754.25;6050196;28;96601;-60
2023/06/19 09:59:26;;;;;;;;;8.00;8.00;;;;;33.88;26.20;98762.50;6047257;28;96299;-61
2023/06/19 10:02:30;;;;;;;;;9.00;8.00;;;;;33.84;25.49;98763.66;6064052;28;99184;-60
2023/06/19 10:05:37;;;;;;;;;10.00;10.00;;;;;33.97;26.08;98747.41;6067135;28;96883;-61
2023/06/19 10:08:43;;;;;;;;;11.00;11.00;;;;;34.38;26.11;98762.34;6049443;28;96730;-60
2023/06/19 10:11:50;;;;;;;;;10.00;10.00;;;;;34.48;26.22;98750.47;6049347;28;97796;-60
2023/06/19 10:14:54;;;;;;;;;8.60;8.40;;;;;34.43;25.83;98748.00;6067344;28;96418;-60
2023/06/19 10:18:02;;;;;;;;;10.25;10.25;;;;;34.58;25.30;98755.38;6067795;28;96311;-60
2023/06/19 10:21:16;;;;;;;;;9.00;8.20;;;;;34.83;25.81;98756.47;6050552;28;96366;-60
2023/06/19 10:24:21;;;;;;;;;11.00;10.00;;;;;35.06;24.89;98759.88;6066621;28;96313;-60
2023/06/19 10:27:26;;;;;;;;;9.80;9.00;;;;;35.11;24.49;98762.31;6049989;28;96965;-60
2023/06/19 10:30:30;;;;;;;;;9.00;8.20;;;;;35.22;24.93;98740.00;6067448;28;96770;-60
2023/06/19 10:33:40;;;;;;;;;8.60;8.40;;;;;35.32;25.29;98746.88;6067196;28;96966;-61
2023/06/19 10:36:45;;;;;;;;;11.40;10.00;;;;;35.48;24.03;98742.56;6050602;28;96363;-60
2023/06/19 10:39:49;;;;;;;;;10.00;10.00;;;;;35.47;24.34;98741.00;6066941;28;96323;-60
2023/06/19 10:42:52;;;;;;;;;9.00;9.00;;;;;35.61;24.87;98743.88;6034174;28;98443;-60
2023/06/19 10:45:55;;;;;;;;;7.00;7.00;;;;;35.81;24.68;98744.41;6049706;28;99316;-59
2023/06/19 10:49:01;;;;;;;;;10.50;9.00;;;;;35.98;24.24;98751.28;6034108;28;97472;-60
2023/06/19 10:52:07;;;;;;;;;11.00;10.75;;;;;36.21;24.28;98745.44;6067196;28;96378;-60
2023/06/19 10:55:12;;;;;;;;;13.00;11.00;;;;;36.35;23.38;98748.28;6066711;28;96474;-60
2023/06/19 10:58:15;;;;;;;;;10.25;10.25;;;;;36.61;23.49;98742.34;6049269;28;96343;-61
2023/06/19 11:01:19;;;;;;;;;12.00;11.00;;;;;36.28;22.48;98746.25;6063909;28;96965;-58
2023/06/19 11:04:25;;;;;;;;;8.00;8.00;;;;;36.03;24.06;98740.50;6065937;28;96222;-59
2023/06/19 11:07:29;;;;;;;;;11.20;11.00;;;;;35.86;23.28;98737.63;6064412;28;96333;-58
2023/06/19 11:10:33;;;;;;;;;10.00;9.00;;;;;35.67;24.04;98735.13;6066645;28;96797;-58
2023/06/19 11:13:37;;;;;;;;;10.75;10.00;;;;;35.30;24.34;98730.44;6081257;28;99419;-60
2023/06/19 11:16:42;;;;;;;;;11.00;10.25;;;;;34.93;25.54;98735.34;6069165;28;96496;-61
2023/06/19 11:19:46;;;;;;;;;11.00;10.00;;;;;34.64;25.81;98723.84;6057697;28;98452;-60
2023/06/19 11:22:56;;;;;;;;;11.00;10.75;;;;;34.91;25.86;98735.72;6074134;28;96766;-61
2023/06/19 11:26:03;;;;;;;;;15.00;13.00;;;;;34.86;25.72;98740.88;6081442;28;96307;-61
2023/06/19 11:29:16;;;;;;;;;13.50;12.00;;;;;34.72;25.45;98736.75;6072982;28;98281;-61
2023/06/19 11:32:24;;;;;;;;;11.80;10.80;;;;;34.47;26.21;98737.66;6077770;28;97538;-61
2023/06/19 11:35:35;;;;;;;;;13.00;11.00;;;;;34.33;26.82;98729.91;6083424;28;96404;-60
2023/06/19 11:38:46;;;;;;;;;13.60;12.60;;;;;34.13;26.57;98731.25;6052354;28;96618;-60
2023/06/19 11:41:52;;;;;;;;;12.00;11.00;;;;;33.86;26.49;98727.72;6053427;28;96973;-61
2023/06/19 11:45:01;;;;;;;;;11.00;11.00;;;;;33.77;27.17;98735.59;6053218;28;96521;-60
2023/06/19 11:48:06;;;;;;;;;10.00;9.75;;;;;33.64;26.56;98732.19;6031915;28;97069;-61
2023/06/19 11:51:10;;;;;;;;;13.25;12.25;;;;;33.85;26.39;98731.72;6050798;28;99335;-60
2023/06/19 11:54:15;;;;;;;;;12.80;11.80;;;;;34.01;26.21;98720.31;6052457;28;97700;-59
2023/06/19 11:57:19;;;;;;;;;11.00;11.00;;;;;34.36;26.66;98713.16;6051780;28;97540;-60
2023/06/19 12:00:22;;;;;;;;;10.20;10.00;;;;;34.82;26.20;98720.44;6058756;28;96902;-60
2023/06/19 12:03:26;;;;;;;;;12.00;10.00;;;;;35.05;24.73;98713.41;6051118;28;96340;-59
2023/06/19 12:06:31;;;;;;;;;12.75;11.00;;;;;34.84;25.36;98715.25;6045792;28;98485;-61
2023/06/19 12:09:39;;;;;;;;;10.50;10.50;;;;;34.86;26.08;98716.47;6049444;28;97334;-60
2023/06/19 12:12:43;;;;;;;;;11.00;10.40;;;;;35.06;25.62;98714.22;6048273;28;96756;-60
2023/06/19 12:15:46;;;;;;;;;10.00;10.00;;;;;34.99;25.61;98714.19;6064025;28;97426;-60
2023/06/19 12:18:50;;;;;;;;;12.00;11.00;;;;;34.39;25.45;98702.38;6066980;28;96194;-61
2023/06/19 12:21:54;;;;;;;;;11.40;11.40;;;;;33.82;25.27;98719.28;6044127;28;96868;-60
2023/06/19 12:24:59;;;;;;;;;13.50;12.50;;;;;33.60;26.12;98710.97;6066918;28;96477;-59
2023/06/19 12:28:05;;;;;;;;;14.00;13.00;;;;;33.37;26.62;98714.66;6050567;28;96679;-61
2023/06/19 12:31:09;;;;;;;;;15.00;13.00;;;;;33.26;27.38;98707.28;6041024;28;97068;-60
2023/06/19 12:34:13;;;;;;;;;11.60;11.60;;;;;33.13;27.97;98697.47;6050618;28;96693;-60
2023/06/19 12:37:32;;;;;;;;;13.00;12.60;;;;;33.19;27.64;98707.97;6054392;28;97651;-59
2023/06/19 12:40:38;;;;;;;;;12.00;12.00;;;;;33.18;27.85;98697.19;6044996;28;97195;-60
2023/06/19 12:43:41;;;;;;;;;12.00;11.20;;;;;33.14;27.14;98691.50;6061428;28;96273;-61
2023/06/19 12:46:45;;;;;;;;;13.75;12.75;;;;;33.31;27.15;98691.00;6067846;28;97262;-60
2023/06/19 12:49:48;;;;;;;;;12.00;11.00;;;;;33.46;27.68;98687.22;6069336;28;96466;-60
2023/06/19 12:52:52;;;;;;;;;12.00;12.00;;;;;33.09;26.89;98684.25;6059489;28;96366;-60
2023/06/19 12:55:58;;;;;;;;;13.20;13.00;;;;;32.80;27.77;98668.22;6051029;28;97273;-59
2023/06/19 12:59:07;;;;;;;;;13.00;12.40;;;;;32.51;27.98;98674.47;6043617;28;96877;-60
2023/06/19 13:02:10;;;;;;;;;12.40;12.00;;;;;32.37;28.84;98677.00;6053603;28;96313;-60
2023/06/19 13:05:17;;;;;;;;;12.40;12.40;;;;;32.18;28.81;98680.66;6034507;28;97049;-60
2023/06/19 13:08:20;;;;;;;;;12.00;11.00;;;;;31.85;28.96;98681.16;6066938;28;96476;-61
2023/06/19 13:11:25;;;;;;;;;12.40;11.40;;;;;31.64;29.31;98683.50;6063760;28;96885;-60
2023/06/19 13:14:29;;;;;;;;;12.40;12.00;;;;;31.69;29.37;98680.44;6057428;28;96485;-59
2023/06/19 13:17:32;;;;;;;;;12.00;11.60;;;;;31.73;29.55;98676.53;6047018;28;96848;-60
2023/06/19 13:20:36;;;;;;;;;12.00;11.00;;;;;31.73;30.09;98684.09;6043607;28;96298;-60
2023/06/19 13:23:39;;;;;;;;;11.40;11.40;;;;;31.62;29.68;98680.28;6042939;28;98917;-60
2023/06/19 13:26:44;;;;;;;;;14.00;13.00;;;;;31.57;29.77;98680.59;6066647;28;96743;-60
2023/06/19 13:29:48;;;;;;;;;14.00;13.00;;;;;31.51;30.16;98676.44;6063755;28;96613;-61
2023/06/19 13:32:51;;;;;;;;;14.40;13.40;;;;;31.52;30.41;98673.25;6023684;28;96744;-61
2023/06/19 13:35:55;;;;;;;;;11.00;10.00;;;;;31.38;30.46;98681.31;6066286;28;96751;-59
2023/06/19 13:38:58;;;;;;;;;15.40;15.00;;;;;31.48;30.33;98677.97;6067897;28;97525;-60
2023/06/19 13:42:04;;;;;;;;;13.00;12.60;;;;;31.49;29.67;98679.56;6045867;28;96591;-60
2023/06/19 13:45:08;;;;;;;;;13.60;12.00;;;;;31.73;30.03;98667.38;6043708;28;96820;-60
2023/06/19 13:48:11;;;;;;;;;12.25;11.75;;;;;32.06;29.89;98664.06;6039310;28;96965;-59
2023/06/19 13:51:15;;;;;;;;;12.00;12.00;;;;;32.23;28.69;98670.00;6050387;28;96592;-60
2023/06/19 13:54:18;;;;;;;;;12.40;11.60;;;;;32.39;28.15;98667.09;6044168;28;96519;-61
2023/06/19 13:57:23;;;;;;;;;14.00;12.00;;;;;32.51;27.87;98658.53;6038834;28;97821;-60
2023/06/19 14:00:26;;;;;;;;;14.00;13.00;;;;;32.61;28.63;98657.09;6061477;28;96824;-60
2023/06/19 14:03:29;;;;;;;;;13.00;13.00;;;;;32.96;28.56;98656.91;6067647;28;96955;-60
2023/06/19 14:06:33;;;;;;;;;11.00;10.80;;;;;33.08;26.99;98656.72;6066431;28;96919;-59
2023/06/19 14:09:37;;;;;;;;;12.00;11.00;;;;;33.16;27.63;98655.66;6065638;28;96948;-60
2023/06/19 14:12:42;;;;;;;;;13.00;12.00;;;;;33.16;27.70;98647.28;6051065;28;96462;-60